createdAt,value
2019-03-23T00:00:10.148Z,2.70
2019-03-23T00:02:38.946Z,2.60
2019-03-23T00:05:09.155Z,2.80
2019-03-23T00:07:37.784Z,2.80
2019-03-23T00:10:07.084Z,2.70
2019-03-23T00:12:36.029Z,2.70
2019-03-23T00:15:10.026Z,2.80
2019-03-23T00:17:41.477Z,2.70
2019-03-23T00:20:10.473Z,2.60
2019-03-23T00:22:39.123Z,2.60
2019-03-23T00:25:07.746Z,2.50
2019-03-23T00:27:36.339Z,2.50
2019-03-23T00:30:10.308Z,2.40
2019-03-23T00:32:38.944Z,2.30
2019-03-23T00:35:11.365Z,2.30
2019-03-23T00:37:40.403Z,2.20
2019-03-23T00:40:09.731Z,2.20
2019-03-23T00:42:38.441Z,2.20
2019-03-23T00:45:08.179Z,2.20
2019-03-23T00:47:36.570Z,2.20
2019-03-23T00:50:06.083Z,2.20
2019-03-23T00:52:34.499Z,2.20
2019-03-23T00:55:02.888Z,2.20
2019-03-23T00:57:31.280Z,2.10
2019-03-23T00:59:59.921Z,2.00
2019-03-23T01:02:28.559Z,2.00
2019-03-23T01:04:57.194Z,2.00
2019-03-23T01:07:25.583Z,2.00
2019-03-23T01:09:53.983Z,1.90
2019-03-23T01:12:22.377Z,1.90
2019-03-23T01:14:50.765Z,1.80
2019-03-23T01:17:19.232Z,1.80
2019-03-23T01:19:47.625Z,1.80
2019-03-23T01:22:16.017Z,1.80
2019-03-23T01:24:44.646Z,1.80
2019-03-23T01:27:13.045Z,1.80
2019-03-23T01:29:41.438Z,1.80
2019-03-23T01:32:09.907Z,1.80
2019-03-23T01:34:38.374Z,1.90
2019-03-23T01:37:06.798Z,1.80
2019-03-23T01:39:35.187Z,1.70
2019-03-23T01:42:03.761Z,1.70
2019-03-23T01:44:46.145Z,1.70
2019-03-23T01:47:14.794Z,1.70
2019-03-23T01:49:43.191Z,1.70
2019-03-23T01:52:11.951Z,1.80
2019-03-23T01:54:40.414Z,1.60
2019-03-23T01:57:08.818Z,1.60
2019-03-23T01:59:37.222Z,1.60
2019-03-23T02:02:05.877Z,1.40
2019-03-23T02:04:34.267Z,1.40
2019-03-23T02:07:13.167Z,1.40
2019-03-23T02:09:32.831Z,1.50
2019-03-23T02:12:01.338Z,1.50
2019-03-23T02:14:29.729Z,1.40
2019-03-23T02:16:58.122Z,1.40
2019-03-23T02:19:26.585Z,1.40
2019-03-23T02:21:55.002Z,1.30
2019-03-23T02:24:23.497Z,1.30
2019-03-23T02:26:51.891Z,1.30
2019-03-23T02:29:20.417Z,1.30
2019-03-23T02:31:48.843Z,1.20
2019-03-23T02:34:17.253Z,1.20
2019-03-23T02:36:45.899Z,1.20
2019-03-23T02:39:14.276Z,1.10
2019-03-23T02:41:42.709Z,1.20
2019-03-23T02:44:11.105Z,1.10
2019-03-23T02:46:39.734Z,1.10
2019-03-23T02:49:08.147Z,1.10
2019-03-23T02:51:39.621Z,1.10
2019-03-23T02:54:06.654Z,1.10
2019-03-23T02:56:35.126Z,1.10
2019-03-23T02:59:03.780Z,1.10
2019-03-23T03:01:32.199Z,1.10
2019-03-23T03:04:00.602Z,1.00
2019-03-23T03:06:29.330Z,1.00
2019-03-23T03:08:57.794Z,1.00
2019-03-23T03:11:26.199Z,1.00
2019-03-23T03:13:54.587Z,1.10
2019-03-23T03:16:22.998Z,1.10
2019-03-23T03:18:51.429Z,1.10
2019-03-23T03:21:19.821Z,1.10
2019-03-23T03:23:48.245Z,1.10
2019-03-23T03:26:16.878Z,1.10
2019-03-23T03:28:45.291Z,1.10
2019-03-23T03:31:13.712Z,1.00
2019-03-23T03:33:42.111Z,1.00
2019-03-23T03:36:10.600Z,0.90
2019-03-23T03:38:38.995Z,1.00
2019-03-23T03:41:07.462Z,0.90
2019-03-23T03:43:36.103Z,0.90
2019-03-23T03:46:04.510Z,0.90
2019-03-23T03:48:33.142Z,0.80
2019-03-23T03:51:01.528Z,0.80
2019-03-23T03:53:29.919Z,0.70
2019-03-23T03:55:58.323Z,0.70
2019-03-23T03:58:26.731Z,0.70
2019-03-23T04:00:55.217Z,0.70
2019-03-23T04:03:23.911Z,0.70
2019-03-23T04:05:52.556Z,0.80
2019-03-23T04:08:21.186Z,0.70
2019-03-23T04:10:49.574Z,0.70
2019-03-23T04:13:18.216Z,0.70
2019-03-23T04:15:46.707Z,0.60
2019-03-23T04:18:15.114Z,0.60
2019-03-23T04:20:43.585Z,0.60
2019-03-23T04:23:11.979Z,0.60
2019-03-23T04:25:40.426Z,0.60
2019-03-23T04:28:09.111Z,0.50
2019-03-23T04:30:37.522Z,0.50
2019-03-23T04:33:05.920Z,0.60
2019-03-23T04:35:34.302Z,0.60
2019-03-23T04:38:02.714Z,0.60
2019-03-23T04:40:31.419Z,0.50
2019-03-23T04:42:59.849Z,0.50
2019-03-23T04:45:28.481Z,0.50
2019-03-23T04:47:56.875Z,0.40
2019-03-23T04:50:25.292Z,0.50
2019-03-23T04:52:53.902Z,0.40
2019-03-23T04:55:22.311Z,0.30
2019-03-23T04:57:50.697Z,0.30
2019-03-23T05:00:20.042Z,0.40
2019-03-23T05:02:48.674Z,0.40
2019-03-23T05:05:17.308Z,0.50
2019-03-23T05:07:45.704Z,0.50
2019-03-23T05:10:14.729Z,0.40
2019-03-23T05:12:43.342Z,0.50
2019-03-23T05:15:11.879Z,0.70
2019-03-23T05:17:40.272Z,0.70
2019-03-23T05:20:10.878Z,0.60
2019-03-23T05:22:39.289Z,0.60
2019-03-23T05:25:09.279Z,0.50
2019-03-23T05:27:37.675Z,0.50
2019-03-23T05:30:07.810Z,0.40
2019-03-23T05:32:36.277Z,0.40
2019-03-23T05:35:06.933Z,0.50
2019-03-23T05:37:35.632Z,0.60
2019-03-23T05:40:08.037Z,0.60
2019-03-23T05:42:36.428Z,0.70
2019-03-23T05:45:07.006Z,1.00
2019-03-23T05:47:35.455Z,1.10
2019-03-23T05:50:05.887Z,1.20
2019-03-23T05:52:34.290Z,1.30
2019-03-23T05:55:02.750Z,1.40
2019-03-23T05:57:31.163Z,1.50
2019-03-23T05:59:59.799Z,1.50
2019-03-23T06:02:28.191Z,1.60
2019-03-23T06:05:02.744Z,1.60
2019-03-23T06:07:31.386Z,1.70
2019-03-23T06:09:59.788Z,1.70
2019-03-23T06:12:28.433Z,2.10
2019-03-23T06:14:56.835Z,2.30
2019-03-23T06:17:25.490Z,2.40
2019-03-23T06:19:53.863Z,2.70
2019-03-23T06:22:22.268Z,2.90
2019-03-23T06:24:50.665Z,3.30
2019-03-23T06:27:19.181Z,3.60
2019-03-23T06:29:47.630Z,3.80
2019-03-23T06:32:16.045Z,4.30
2019-03-23T06:34:44.452Z,4.60
2019-03-23T06:37:12.856Z,4.70
2019-03-23T06:39:41.254Z,4.90
2019-03-23T06:42:09.971Z,5.00
2019-03-23T06:44:38.610Z,5.10
2019-03-23T06:47:07.275Z,5.20
2019-03-23T06:49:35.912Z,5.20
2019-03-23T06:52:04.496Z,5.30
2019-03-23T06:54:33.138Z,5.30
2019-03-23T06:57:01.553Z,5.30
2019-03-23T06:59:29.969Z,5.30
2019-03-23T07:01:58.409Z,5.30
2019-03-23T07:04:26.984Z,5.40
2019-03-23T07:06:55.447Z,5.50
2019-03-23T07:09:23.869Z,5.60
2019-03-23T07:11:52.265Z,5.60
2019-03-23T07:14:20.675Z,5.60
2019-03-23T07:16:49.079Z,5.60
2019-03-23T07:19:17.754Z,5.60
2019-03-23T07:21:46.155Z,5.60
2019-03-23T07:24:14.549Z,5.70
2019-03-23T07:26:42.950Z,5.50
2019-03-23T07:29:11.358Z,5.50
2019-03-23T07:31:40.007Z,5.50
2019-03-23T07:34:08.399Z,5.60
2019-03-23T07:36:36.790Z,5.60
2019-03-23T07:39:06.947Z,5.60
2019-03-23T07:41:35.383Z,5.70
2019-03-23T07:44:04.150Z,5.70
2019-03-23T07:46:32.806Z,5.80
2019-03-23T07:49:01.502Z,5.80
2019-03-23T07:51:29.902Z,5.90
2019-03-23T07:53:58.538Z,6.00
2019-03-23T07:56:26.947Z,5.90
2019-03-23T07:58:55.345Z,5.90
2019-03-23T08:01:24.005Z,6.00
2019-03-23T08:03:52.431Z,6.10
2019-03-23T08:06:20.858Z,6.00
2019-03-23T08:08:49.246Z,6.10
2019-03-23T08:11:17.654Z,6.00
2019-03-23T08:13:46.144Z,6.00
2019-03-23T08:16:14.557Z,6.10
2019-03-23T08:18:43.036Z,6.00
2019-03-23T08:21:11.431Z,6.10
2019-03-23T08:23:39.845Z,6.20
2019-03-23T08:26:08.241Z,6.30
2019-03-23T08:28:36.911Z,6.30
2019-03-23T08:31:05.290Z,6.40
2019-03-23T08:33:33.697Z,6.50
2019-03-23T08:36:02.342Z,6.40
2019-03-23T08:38:30.746Z,6.50
2019-03-23T08:40:59.155Z,6.50
2019-03-23T08:43:27.609Z,6.50
2019-03-23T08:45:57.638Z,6.60
2019-03-23T08:48:27.622Z,6.30
2019-03-23T08:50:56.058Z,6.40
2019-03-23T08:53:29.835Z,6.50
2019-03-23T08:56:02.626Z,6.50
2019-03-23T08:58:31.975Z,6.50
2019-03-23T09:01:00.869Z,6.50
2019-03-23T09:03:29.430Z,6.50
2019-03-23T09:05:59.796Z,6.50
2019-03-23T09:08:30.806Z,6.50
2019-03-23T09:10:59.226Z,6.60
2019-03-23T09:13:40.483Z,6.70
2019-03-23T09:16:07.008Z,6.60
2019-03-23T09:18:38.202Z,6.60
2019-03-23T09:21:15.497Z,6.60
2019-03-23T09:23:43.997Z,6.60
2019-03-23T09:29:04.764Z,6.70
2019-03-23T09:31:41.817Z,6.70
2019-03-23T09:34:12.477Z,6.70
2019-03-23T09:36:41.473Z,6.70
2019-03-23T09:41:59.446Z,6.70
2019-03-23T09:44:30.923Z,6.80
2019-03-23T09:47:03.230Z,6.70
2019-03-23T09:49:31.309Z,6.70
2019-03-23T09:52:02.874Z,6.80
2019-03-23T09:54:33.681Z,6.80
2019-03-23T09:57:05.550Z,7.00
2019-03-23T09:59:39.924Z,7.00
2019-03-23T10:02:12.901Z,7.10
2019-03-23T10:04:45.045Z,7.10
2019-03-23T10:07:15.543Z,7.10
2019-03-23T10:09:44.098Z,7.10
2019-03-23T10:12:16.506Z,7.00
2019-03-23T10:14:55.021Z,7.10
2019-03-23T10:17:24.965Z,7.20
2019-03-23T10:19:53.667Z,7.40
2019-03-23T10:22:22.217Z,7.60
2019-03-23T10:24:53.067Z,7.50
2019-03-23T10:27:21.611Z,7.60
2019-03-23T10:29:52.131Z,7.50
2019-03-23T10:32:20.678Z,7.50
2019-03-23T10:34:51.495Z,7.50
2019-03-23T10:37:19.939Z,7.80
2019-03-23T10:39:48.361Z,7.90
2019-03-23T10:42:17.307Z,7.70
2019-03-23T10:44:47.331Z,7.70
2019-03-23T10:47:21.645Z,7.80
2019-03-23T10:49:50.446Z,7.90
2019-03-23T10:52:22.115Z,7.90
2019-03-23T10:54:50.735Z,7.80
2019-03-23T10:57:19.283Z,7.80
2019-03-23T11:02:42.838Z,8.20
2019-03-23T11:05:11.661Z,8.20
2019-03-23T11:07:48.001Z,8.40
2019-03-23T11:10:42.535Z,8.40
2019-03-23T11:13:11.144Z,8.20
2019-03-23T11:15:42.473Z,7.90
2019-03-23T11:18:11.103Z,8.00
2019-03-23T11:20:41.916Z,8.00
2019-03-23T11:23:10.602Z,8.00
2019-03-23T11:25:41.687Z,8.20
2019-03-23T11:28:12.032Z,8.10
2019-03-23T11:30:40.511Z,8.10
2019-03-23T11:33:10.726Z,8.20
2019-03-23T11:35:42.605Z,8.30
2019-03-23T11:38:12.203Z,8.30
2019-03-23T11:40:53.860Z,8.30
2019-03-23T11:43:13.543Z,8.20
2019-03-23T11:48:40.758Z,8.10
2019-03-23T11:51:15.880Z,8.30
2019-03-23T11:53:47.331Z,8.30
2019-03-23T11:56:16.007Z,8.10
2019-03-23T11:58:46.904Z,8.10
2019-03-23T12:01:16.927Z,8.00
2019-03-23T12:03:45.822Z,8.00
2019-03-23T12:06:14.987Z,8.00
2019-03-23T12:08:45.278Z,8.00
2019-03-23T12:11:16.259Z,8.00
2019-03-23T12:13:47.764Z,8.20
2019-03-23T12:16:18.605Z,8.30
2019-03-23T12:18:54.150Z,8.30
2019-03-23T12:21:24.389Z,8.20
2019-03-23T12:24:01.650Z,8.30
2019-03-23T12:26:30.303Z,8.40
2019-03-23T12:28:58.829Z,8.40
2019-03-23T12:31:36.399Z,8.50
2019-03-23T12:34:10.059Z,8.50
2019-03-23T12:36:41.650Z,8.50
2019-03-23T12:39:11.794Z,8.50
2019-03-23T12:41:47.759Z,8.60
2019-03-23T12:44:20.103Z,8.80
2019-03-23T12:47:03.745Z,8.90
2019-03-23T12:52:24.330Z,9.20
2019-03-23T12:55:07.315Z,9.00
2019-03-23T12:57:38.269Z,9.10
2019-03-23T13:00:12.706Z,9.00
2019-03-23T13:02:43.681Z,9.30
2019-03-23T13:05:12.249Z,9.30
2019-03-23T13:07:41.005Z,9.30
2019-03-23T13:10:11.925Z,9.30
2019-03-23T13:12:42.700Z,9.60
2019-03-23T13:15:15.923Z,9.70
2019-03-23T13:17:46.495Z,9.70
2019-03-23T13:20:19.433Z,9.50
2019-03-23T13:22:47.987Z,9.60
2019-03-23T13:25:18.834Z,9.50
2019-03-23T13:27:50.102Z,9.50
2019-03-23T13:30:23.407Z,9.60
2019-03-23T13:32:51.716Z,9.60
2019-03-23T13:35:20.392Z,9.70
2019-03-23T13:37:54.559Z,9.80
2019-03-23T13:40:23.391Z,9.70
2019-03-23T13:42:53.055Z,9.50
2019-03-23T13:45:21.673Z,9.40
2019-03-23T13:47:50.169Z,9.40
2019-03-23T13:50:29.765Z,9.30
2019-03-23T13:52:58.733Z,9.50
2019-03-23T13:55:32.228Z,9.50
2019-03-23T13:58:09.511Z,9.60
2019-03-23T14:00:38.585Z,9.60
2019-03-23T14:03:13.977Z,9.80
2019-03-23T14:05:38.531Z,9.90
2019-03-23T14:08:12.007Z,9.60
2019-03-23T14:10:42.826Z,9.70
2019-03-23T14:13:13.027Z,9.70
2019-03-23T14:15:48.586Z,9.70
2019-03-23T14:18:17.515Z,9.80
2019-03-23T14:20:46.433Z,9.70
2019-03-23T14:23:15.262Z,9.70
2019-03-23T14:25:44.192Z,9.70
2019-03-23T14:28:17.483Z,9.70
2019-03-23T14:30:55.865Z,10.00
2019-03-23T14:33:23.259Z,10.30
2019-03-23T14:35:54.996Z,10.30
2019-03-23T14:38:25.572Z,10.20
2019-03-23T14:40:57.745Z,10.00
2019-03-23T14:43:29.004Z,10.00
2019-03-23T14:46:05.387Z,10.30
2019-03-23T14:48:41.946Z,10.20
2019-03-23T14:51:13.981Z,10.40
2019-03-23T14:53:42.667Z,10.20
2019-03-23T14:56:11.177Z,10.20
2019-03-23T14:58:40.364Z,10.10
2019-03-23T15:01:11.083Z,10.10
2019-03-23T15:03:39.709Z,10.10
2019-03-23T15:06:10.174Z,10.20
2019-03-23T15:08:38.595Z,10.40
2019-03-23T15:11:07.438Z,10.40
2019-03-23T15:13:42.405Z,10.40
2019-03-23T15:16:10.725Z,10.60
2019-03-23T15:21:36.900Z,10.80
2019-03-23T15:24:10.943Z,10.60
2019-03-23T15:26:39.518Z,10.50
2019-03-23T15:29:10.335Z,10.50
2019-03-23T15:31:41.957Z,10.60
2019-03-23T15:34:12.274Z,10.60
2019-03-23T15:36:43.488Z,10.40
2019-03-23T15:39:15.200Z,10.30
2019-03-23T15:41:48.255Z,10.20
2019-03-23T15:44:18.264Z,10.10
2019-03-23T15:46:46.762Z,10.20
2019-03-23T15:49:15.230Z,10.10
2019-03-23T15:51:43.780Z,10.30
2019-03-23T15:54:12.210Z,10.20
2019-03-23T15:56:40.667Z,10.10
2019-03-23T15:59:09.833Z,10.10
2019-03-23T16:01:39.978Z,10.10
2019-03-23T16:04:11.211Z,10.10
2019-03-23T16:09:34.850Z,10.10
2019-03-23T16:12:05.034Z,10.00
2019-03-23T16:14:38.121Z,10.00
2019-03-23T16:17:16.954Z,10.00
2019-03-23T16:19:45.527Z,10.00
2019-03-23T16:22:18.158Z,10.00
2019-03-23T16:24:49.152Z,9.90
2019-03-23T16:27:17.670Z,9.90
2019-03-23T16:29:50.202Z,9.80
2019-03-23T16:32:18.759Z,9.90
2019-03-23T16:34:51.552Z,9.80
2019-03-23T16:37:19.977Z,9.80
2019-03-23T16:39:53.506Z,9.70
2019-03-23T16:42:22.259Z,9.60
2019-03-23T16:44:55.438Z,9.60
2019-03-23T16:47:27.087Z,9.50
2019-03-23T16:49:58.613Z,9.40
2019-03-23T16:52:27.078Z,9.30
2019-03-23T16:54:58.971Z,9.20
2019-03-23T16:57:27.410Z,9.10
2019-03-23T16:59:57.486Z,9.00
2019-03-23T17:02:31.405Z,8.90
2019-03-23T17:05:01.263Z,8.70
2019-03-23T17:07:29.701Z,8.60
2019-03-23T17:09:58.145Z,8.60
2019-03-23T17:12:29.829Z,8.50
2019-03-23T17:14:58.570Z,8.50
2019-03-23T17:17:28.668Z,8.40
2019-03-23T17:19:57.143Z,8.40
2019-03-23T17:22:30.511Z,8.40
2019-03-23T17:24:59.301Z,8.40
2019-03-23T17:27:33.804Z,8.40
2019-03-23T17:30:03.635Z,8.40
2019-03-23T17:32:32.684Z,8.30
2019-03-23T17:35:03.128Z,8.20
2019-03-23T17:37:33.267Z,8.00
2019-03-23T17:40:01.677Z,7.90
2019-03-23T17:42:38.257Z,7.70
2019-03-23T17:45:08.413Z,7.50
2019-03-23T17:47:37.083Z,7.30
2019-03-23T17:50:07.498Z,7.10
2019-03-23T17:52:38.623Z,6.90
2019-03-23T17:55:08.269Z,6.70
2019-03-23T17:57:38.622Z,6.50
2019-03-23T18:00:09.080Z,6.40
2019-03-23T18:02:40.698Z,6.20
2019-03-23T18:05:14.239Z,6.00
2019-03-23T18:07:44.694Z,5.90
2019-03-23T18:10:13.417Z,5.70
2019-03-23T18:12:42.146Z,5.60
2019-03-23T18:15:15.294Z,5.50
2019-03-23T18:17:45.516Z,5.40
2019-03-23T18:20:14.606Z,5.30
2019-03-23T18:22:45.706Z,5.20
2019-03-23T18:25:14.666Z,5.10
2019-03-23T18:27:43.368Z,5.00
2019-03-23T18:30:30.497Z,4.90
2019-03-23T18:32:59.175Z,4.80
2019-03-23T18:35:30.798Z,4.80
2019-03-23T18:37:59.376Z,4.70
2019-03-23T18:40:31.388Z,4.70
2019-03-23T18:43:00.026Z,4.60
2019-03-23T18:45:28.482Z,4.50
2019-03-23T18:50:50.674Z,4.40
2019-03-23T18:53:19.119Z,4.20
2019-03-23T18:55:50.614Z,4.10
2019-03-23T18:58:22.021Z,4.00
2019-03-23T19:00:50.467Z,4.00
2019-03-23T19:03:22.846Z,3.90
2019-03-23T19:05:53.060Z,3.90
2019-03-23T19:08:23.598Z,3.80
2019-03-23T19:10:52.108Z,3.80
2019-03-23T19:13:20.564Z,3.70
2019-03-23T19:15:49.411Z,3.70
2019-03-23T19:18:22.715Z,3.70
2019-03-23T19:20:59.574Z,3.80
2019-03-23T19:23:34.642Z,3.70
2019-03-23T19:26:01.873Z,3.60
2019-03-23T19:28:35.130Z,3.50
2019-03-23T19:31:03.037Z,3.50
2019-03-23T19:33:31.648Z,3.40
2019-03-23T19:36:00.295Z,3.30
2019-03-23T19:38:31.341Z,3.30
2019-03-23T19:40:59.811Z,3.20
2019-03-23T19:43:28.199Z,3.10
2019-03-23T19:45:56.866Z,3.00
2019-03-23T19:48:25.407Z,3.00
2019-03-23T19:50:54.213Z,2.90
2019-03-23T19:53:22.840Z,2.90
2019-03-23T19:55:51.785Z,2.90
2019-03-23T19:58:20.396Z,2.80
2019-03-23T20:00:48.980Z,2.80
2019-03-23T20:03:19.229Z,2.70
2019-03-23T20:05:48.095Z,2.70
2019-03-23T20:08:16.579Z,2.60
2019-03-23T20:10:45.385Z,2.60
2019-03-23T20:13:14.141Z,2.60
2019-03-23T20:15:43.300Z,2.50
2019-03-23T20:18:11.957Z,2.40
2019-03-23T20:20:40.502Z,2.40
2019-03-23T20:23:09.203Z,2.40
2019-03-23T20:25:39.706Z,2.40
2019-03-23T20:28:08.135Z,2.30
2019-03-23T20:30:37.158Z,2.30
2019-03-23T20:33:05.731Z,2.30
2019-03-23T20:35:34.278Z,2.20
2019-03-23T20:38:02.968Z,2.10
2019-03-23T20:40:31.819Z,2.10
2019-03-23T20:43:00.463Z,2.10
2019-03-23T20:45:30.052Z,2.10
2019-03-23T20:47:59.561Z,2.00
2019-03-23T20:50:28.309Z,2.00
2019-03-23T20:52:57.480Z,1.90
2019-03-23T20:55:28.626Z,1.90
2019-03-23T20:57:58.517Z,1.90
2019-03-23T21:00:27.261Z,1.80
2019-03-23T21:02:55.953Z,1.80
2019-03-23T21:05:33.115Z,1.80
2019-03-23T21:07:55.223Z,1.80
2019-03-23T21:10:24.161Z,1.70
2019-03-23T21:12:52.928Z,1.70
2019-03-23T21:15:21.896Z,1.60
2019-03-23T21:17:51.630Z,1.70
2019-03-23T21:20:20.390Z,1.60
2019-03-23T21:22:53.052Z,1.60
2019-03-23T21:25:21.741Z,1.60
2019-03-23T21:27:50.162Z,1.60
2019-03-23T21:30:19.210Z,1.50
2019-03-23T21:32:47.605Z,1.50
2019-03-23T21:35:16.142Z,1.40
2019-03-23T21:37:44.590Z,1.40
2019-03-23T21:40:13.067Z,1.40
2019-03-23T21:42:41.762Z,1.40
2019-03-23T21:45:10.347Z,1.30
2019-03-23T21:47:39.057Z,1.30
2019-03-23T21:50:09.478Z,1.30
2019-03-23T21:52:38.124Z,1.30
2019-03-23T21:55:08.018Z,1.20
2019-03-23T21:57:36.826Z,1.10
2019-03-23T22:00:07.367Z,1.10
2019-03-23T22:02:35.777Z,1.10
2019-03-23T22:05:06.127Z,1.10
2019-03-23T22:07:35.230Z,1.10
2019-03-23T22:10:08.628Z,1.00
2019-03-23T22:12:37.097Z,1.00
2019-03-23T22:15:10.070Z,1.00
2019-03-23T22:17:38.706Z,0.90
2019-03-23T22:20:08.291Z,0.90
2019-03-23T22:22:36.684Z,0.90
2019-03-23T22:25:06.968Z,0.80
2019-03-23T22:27:37.011Z,0.80
2019-03-23T22:30:13.315Z,0.70
2019-03-23T22:32:41.709Z,0.70
2019-03-23T22:35:10.365Z,0.80
2019-03-23T22:37:38.800Z,0.70
2019-03-23T22:40:09.758Z,0.70
2019-03-23T22:42:38.164Z,0.70
2019-03-23T22:45:10.155Z,0.70
2019-03-23T22:47:38.569Z,0.60
2019-03-23T22:50:08.810Z,0.60
2019-03-23T22:52:37.447Z,0.80
2019-03-23T22:55:06.889Z,0.60
2019-03-23T22:57:35.281Z,0.50
2019-03-23T23:00:05.298Z,0.50
2019-03-23T23:02:33.703Z,0.50
2019-03-23T23:05:02.137Z,0.50
2019-03-23T23:07:30.542Z,0.40
2019-03-23T23:09:58.953Z,0.40
2019-03-23T23:12:27.359Z,0.40
2019-03-23T23:15:04.471Z,0.40
2019-03-23T23:17:28.323Z,0.30
2019-03-23T23:19:57.000Z,0.30
2019-03-23T23:22:25.408Z,0.30
2019-03-23T23:24:53.794Z,0.30
2019-03-23T23:27:22.221Z,0.40
2019-03-23T23:29:50.649Z,0.30
2019-03-23T23:32:19.034Z,0.40
2019-03-23T23:34:47.455Z,0.40
2019-03-23T23:37:15.869Z,0.50
2019-03-23T23:39:44.281Z,0.50
2019-03-23T23:42:12.825Z,0.50
2019-03-23T23:44:41.347Z,0.60
2019-03-23T23:47:09.811Z,0.60
2019-03-23T23:49:38.459Z,0.60
2019-03-23T23:52:06.885Z,0.70
2019-03-23T23:54:35.299Z,0.80
2019-03-23T23:57:03.711Z,0.90
2019-03-23T23:59:32.989Z,1.00
